sensor_id;sensor_type;location;lat;lon;timestamp;pressure;altitude;pressure_sealevel;temperature;humidity
46347;BME280;32057;47.830;19.046;2022-07-09T00:00:36;100697.81;;;17.14;69.47
46347;BME280;32057;47.830;19.046;2022-07-09T00:03:01;100703.94;;;17.15;69.56
46347;BME280;32057;47.830;19.046;2022-07-09T00:05:27;100703.06;;;17.14;69.42
46347;BME280;32057;47.830;19.046;2022-07-09T00:07:52;100710.94;;;17.14;69.67
46347;BME280;32057;47.830;19.046;2022-07-09T00:10:18;100709.19;;;17.22;68.89
46347;BME280;32057;47.830;19.046;2022-07-09T00:12:44;100715.31;;;17.23;69.99
46347;BME280;32057;47.830;19.046;2022-07-09T00:15:09;100720.56;;;17.15;70.63
46347;BME280;32057;47.830;19.046;2022-07-09T00:17:35;100724.97;;;17.13;71.00
46347;BME280;32057;47.830;19.046;2022-07-09T00:20:01;100719.72;;;17.04;72.97
46347;BME280;32057;47.830;19.046;2022-07-09T00:22:30;100720.59;;;17.00;73.92
46347;BME280;32057;47.830;19.046;2022-07-09T00:24:56;100719.69;;;16.99;74.60
46347;BME280;32057;47.830;19.046;2022-07-09T00:27:22;100714.47;;;16.91;75.56
46347;BME280;32057;47.830;19.046;2022-07-09T00:29:47;100717.88;;;16.69;75.71
46347;BME280;32057;47.830;19.046;2022-07-09T00:32:13;100710.00;;;16.53;76.82
46347;BME280;32057;47.830;19.046;2022-07-09T00:34:39;100709.00;;;16.19;77.24
46347;BME280;32057;47.830;19.046;2022-07-09T00:37:04;100715.06;;;16.01;78.56
46347;BME280;32057;47.830;19.046;2022-07-09T00:39:30;100714.28;;;16.22;78.49
46347;BME280;32057;47.830;19.046;2022-07-09T00:42:09;100719.56;;;16.35;76.50
46347;BME280;32057;47.830;19.046;2022-07-09T00:44:35;100712.50;;;16.15;78.61
46347;BME280;32057;47.830;19.046;2022-07-09T00:47:03;100713.41;;;16.19;78.61
46347;BME280;32057;47.830;19.046;2022-07-09T00:49:30;100706.38;;;16.08;79.86
46347;BME280;32057;47.830;19.046;2022-07-09T00:51:56;100706.38;;;16.13;80.22
46347;BME280;32057;47.830;19.046;2022-07-09T00:54:23;100713.34;;;16.11;80.58
46347;BME280;32057;47.830;19.046;2022-07-09T00:56:50;100709.00;;;16.10;80.93
46347;BME280;32057;47.830;19.046;2022-07-09T00:59:17;100707.16;;;15.95;81.47
46347;BME280;32057;47.830;19.046;2022-07-09T01:01:43;100710.63;;;15.89;81.88
46347;BME280;32057;47.830;19.046;2022-07-09T01:04:08;100709.78;;;15.89;82.02
46347;BME280;32057;47.830;19.046;2022-07-09T01:06:34;100714.13;;;15.85;82.13
46347;BME280;32057;47.830;19.046;2022-07-09T01:09:02;100706.25;;;15.87;81.87
46347;BME280;32057;47.830;19.046;2022-07-09T01:11:29;100704.50;;;15.87;81.70
46347;BME280;32057;47.830;19.046;2022-07-09T01:13:55;100711.50;;;15.87;81.44
46347;BME280;32057;47.830;19.046;2022-07-09T01:16:20;100704.50;;;15.83;81.84
46347;BME280;32057;47.830;19.046;2022-07-09T01:18:48;100702.72;;;15.77;82.11
46347;BME280;32057;47.830;19.046;2022-07-09T01:21:14;100704.38;;;15.67;82.68
46347;BME280;32057;47.830;19.046;2022-07-09T01:23:40;100705.22;;;15.63;82.90
46347;BME280;32057;47.830;19.046;2022-07-09T01:26:06;100704.34;;;15.61;83.08
46347;BME280;32057;47.830;19.046;2022-07-09T01:28:32;100695.56;;;15.53;83.24
46347;BME280;32057;47.830;19.046;2022-07-09T01:30:57;100691.16;;;15.49;83.71
46347;BME280;32057;47.830;19.046;2022-07-09T01:33:23;100690.28;;;15.44;83.94
46347;BME280;32057;47.830;19.046;2022-07-09T01:35:48;100695.47;;;15.41;84.16
46347;BME280;32057;47.830;19.046;2022-07-09T01:38:13;100684.13;;;15.43;84.02
46347;BME280;32057;47.830;19.046;2022-07-09T01:40:39;100689.34;;;15.37;83.96
46347;BME280;32057;47.830;19.046;2022-07-09T01:43:04;100681.53;;;15.42;83.72
46347;BME280;32057;47.830;19.046;2022-07-09T01:45:30;100682.34;;;15.39;83.75
46347;BME280;32057;47.830;19.046;2022-07-09T01:47:56;100678.94;;;15.48;83.00
46347;BME280;32057;47.830;19.046;2022-07-09T01:50:22;100682.38;;;15.42;82.89
46347;BME280;32057;47.830;19.046;2022-07-09T01:52:47;100683.22;;;15.37;83.22
46347;BME280;32057;47.830;19.046;2022-07-09T01:55:13;100676.28;;;15.45;82.50
46347;BME280;32057;47.830;19.046;2022-07-09T01:57:38;100677.97;;;15.37;82.65
46347;BME280;32057;47.830;19.046;2022-07-09T02:00:04;100679.69;;;15.30;82.85
46347;BME280;32057;47.830;19.046;2022-07-09T02:02:30;100677.06;;;15.30;83.10
46347;BME280;32057;47.830;19.046;2022-07-09T02:04:56;100668.28;;;15.23;83.63
46347;BME280;32057;47.830;19.046;2022-07-09T02:07:21;100675.25;;;15.18;83.88
46347;BME280;32057;47.830;19.046;2022-07-09T02:09:47;100669.06;;;15.13;84.01
46347;BME280;32057;47.830;19.046;2022-07-09T02:12:14;100672.59;;;15.12;84.06
46347;BME280;32057;47.830;19.046;2022-07-09T02:14:39;100675.19;;;15.10;84.38
46347;BME280;32057;47.830;19.046;2022-07-09T02:17:05;100676.94;;;15.10;84.16
46347;BME280;32057;47.830;19.046;2022-07-09T02:19:31;100673.47;;;15.14;84.22
46347;BME280;32057;47.830;19.046;2022-07-09T02:21:56;100677.81;;;15.10;84.36
46347;BME280;32057;47.830;19.046;2022-07-09T02:24:21;100681.28;;;15.11;84.57
46347;BME280;32057;47.830;19.046;2022-07-09T02:26:47;100681.38;;;15.20;83.39
46347;BME280;32057;47.830;19.046;2022-07-09T02:29:12;100682.19;;;15.14;83.98
46347;BME280;32057;47.830;19.046;2022-07-09T02:31:38;100680.44;;;15.10;84.13
46347;BME280;32057;47.830;19.046;2022-07-09T02:34:03;100682.94;;;15.00;85.09
46347;BME280;32057;47.830;19.046;2022-07-09T02:36:28;100682.13;;;15.07;84.75
46347;BME280;32057;47.830;19.046;2022-07-09T02:38:54;100677.75;;;15.03;84.87
46347;BME280;32057;47.830;19.046;2022-07-09T02:41:19;100679.53;;;15.07;85.23
46347;BME280;32057;47.830;19.046;2022-07-09T02:43:45;100682.94;;;15.00;84.83
46347;BME280;32057;47.830;19.046;2022-07-09T02:46:10;100682.91;;;14.95;85.60
46347;BME280;32057;47.830;19.046;2022-07-09T02:48:36;100686.38;;;14.89;85.63
46347;BME280;32057;47.830;19.046;2022-07-09T02:51:02;100686.41;;;14.92;85.35
46347;BME280;32057;47.830;19.046;2022-07-09T02:53:28;100690.75;;;14.93;85.36
46347;BME280;32057;47.830;19.046;2022-07-09T02:55:57;100693.31;;;14.84;85.71
46347;BME280;32057;47.830;19.046;2022-07-09T02:58:22;100690.72;;;14.86;85.79
46347;BME280;32057;47.830;19.046;2022-07-09T03:00:47;100682.84;;;14.84;86.05
46347;BME280;32057;47.830;19.046;2022-07-09T03:03:13;100688.97;;;14.89;85.09
46347;BME280;32057;47.830;19.046;2022-07-09T03:05:39;100680.25;;;14.86;85.84
46347;BME280;32057;47.830;19.046;2022-07-09T03:08:04;100688.09;;;14.84;85.98
46347;BME280;32057;47.830;19.046;2022-07-09T03:10:31;100682.84;;;14.87;85.87
46347;BME280;32057;47.830;19.046;2022-07-09T03:12:57;100680.25;;;14.86;86.12
46347;BME280;32057;47.830;19.046;2022-07-09T03:15:22;100679.38;;;14.88;85.74
46347;BME280;32057;47.830;19.046;2022-07-09T03:17:48;100672.38;;;14.86;85.81
46347;BME280;32057;47.830;19.046;2022-07-09T03:20:14;100681.06;;;14.82;86.35
46347;BME280;32057;47.830;19.046;2022-07-09T03:22:40;100682.81;;;14.81;86.38
46347;BME280;32057;47.830;19.046;2022-07-09T03:25:07;100688.91;;;14.80;86.57
46347;BME280;32057;47.830;19.046;2022-07-09T03:27:33;100688.91;;;14.82;86.50
46347;BME280;32057;47.830;19.046;2022-07-09T03:29:58;100686.31;;;14.83;85.98
46347;BME280;32057;47.830;19.046;2022-07-09T03:32:25;100693.34;;;14.87;85.94
46347;BME280;32057;47.830;19.046;2022-07-09T03:34:50;100693.38;;;14.90;85.54
46347;BME280;32057;47.830;19.046;2022-07-09T03:37:18;100694.25;;;14.91;85.36
46347;BME280;32057;47.830;19.046;2022-07-09T03:39:43;100696.00;;;14.93;85.60
46347;BME280;32057;47.830;19.046;2022-07-09T03:42:10;100695.16;;;14.98;85.00
46347;BME280;32057;47.830;19.046;2022-07-09T03:44:36;100685.59;;;15.01;84.82
46347;BME280;32057;47.830;19.046;2022-07-09T03:47:01;100694.34;;;15.03;84.91
46347;BME280;32057;47.830;19.046;2022-07-09T03:49:27;100695.25;;;15.07;84.51
46347;BME280;32057;47.830;19.046;2022-07-09T03:51:53;100696.94;;;15.00;85.37
46347;BME280;32057;47.830;19.046;2022-07-09T03:54:18;100693.44;;;15.00;85.42
46347;BME280;32057;47.830;19.046;2022-07-09T03:56:44;100691.72;;;15.02;85.20
46347;BME280;32057;47.830;19.046;2022-07-09T03:59:10;100696.88;;;14.96;85.67
46347;BME280;32057;47.830;19.046;2022-07-09T04:01:35;100696.88;;;14.92;85.90
46347;BME280;32057;47.830;19.046;2022-07-09T04:04:01;100703.81;;;14.84;86.16
46347;BME280;32057;47.830;19.046;2022-07-09T04:06:26;100699.44;;;14.85;86.10
46347;BME280;32057;47.830;19.046;2022-07-09T04:08:52;100702.09;;;14.89;86.10
46347;BME280;32057;47.830;19.046;2022-07-09T04:11:17;100699.41;;;14.80;86.54
46347;BME280;32057;47.830;19.046;2022-07-09T04:13:43;100698.50;;;14.78;86.97
46347;BME280;32057;47.830;19.046;2022-07-09T04:16:09;100707.28;;;14.85;86.84
46347;BME280;32057;47.830;19.046;2022-07-09T04:18:35;100698.56;;;14.84;87.07
46347;BME280;32057;47.830;19.046;2022-07-09T04:21:01;100703.00;;;14.94;86.19
46347;BME280;32057;47.830;19.046;2022-07-09T04:23:26;100706.63;;;15.06;85.82
46347;BME280;32057;47.830;19.046;2022-07-09T04:25:52;100710.13;;;15.08;85.44
46347;BME280;32057;47.830;19.046;2022-07-09T04:28:19;100711.00;;;15.10;84.97
46347;BME280;32057;47.830;19.046;2022-07-09T04:30:47;100707.50;;;15.11;85.35
46347;BME280;32057;47.830;19.046;2022-07-09T04:33:13;100712.00;;;15.26;84.94
46347;BME280;32057;47.830;19.046;2022-07-09T04:35:38;100698.03;;;15.28;84.44
46347;BME280;32057;47.830;19.046;2022-07-09T04:38:04;100700.69;;;15.34;84.48
46347;BME280;32057;47.830;19.046;2022-07-09T04:40:30;100699.94;;;15.52;83.62
46347;BME280;32057;47.830;19.046;2022-07-09T04:42:55;100693.84;;;15.61;82.95
46347;BME280;32057;47.830;19.046;2022-07-09T04:45:21;100688.69;;;15.73;82.23
46347;BME280;32057;47.830;19.046;2022-07-09T04:47:46;100687.91;;;15.84;81.49
46347;BME280;32057;47.830;19.046;2022-07-09T04:50:12;100701.06;;;15.99;82.01
46347;BME280;32057;47.830;19.046;2022-07-09T04:52:38;100698.47;;;16.04;80.95
46347;BME280;32057;47.830;19.046;2022-07-09T04:55:04;100689.75;;;16.14;79.79
46347;BME280;32057;47.830;19.046;2022-07-09T04:57:30;100695.03;;;16.25;79.77
46347;BME280;32057;47.830;19.046;2022-07-09T05:00:00;100697.69;;;16.34;79.26
46347;BME280;32057;47.830;19.046;2022-07-09T05:02:26;100696.81;;;16.38;78.46
46347;BME280;32057;47.830;19.046;2022-07-09T05:04:52;100697.72;;;16.46;78.06
46347;BME280;32057;47.830;19.046;2022-07-09T05:07:17;100691.63;;;16.64;77.13
46347;BME280;32057;47.830;19.046;2022-07-09T05:09:43;100689.88;;;16.79;76.80
46347;BME280;32057;47.830;19.046;2022-07-09T05:12:08;100688.16;;;16.85;76.08
46347;BME280;32057;47.830;19.046;2022-07-09T05:14:38;100694.31;;;17.00;75.88
46347;BME280;32057;47.830;19.046;2022-07-09T05:17:04;100696.94;;;17.07;74.53
46347;BME280;32057;47.830;19.046;2022-07-09T05:19:30;100688.16;;;17.24;74.12
46347;BME280;32057;47.830;19.046;2022-07-09T05:21:56;100688.13;;;17.42;73.96
46347;BME280;32057;47.830;19.046;2022-07-09T05:24:21;100688.97;;;17.49;72.92
46347;BME280;32057;47.830;19.046;2022-07-09T05:26:47;100690.72;;;17.55;72.53
46347;BME280;32057;47.830;19.046;2022-07-09T05:29:13;100691.59;;;17.52;72.54
46347;BME280;32057;47.830;19.046;2022-07-09T05:31:38;100690.72;;;17.51;72.43
46347;BME280;32057;47.830;19.046;2022-07-09T05:34:04;100695.94;;;17.68;71.98
46347;BME280;32057;47.830;19.046;2022-07-09T05:36:31;100695.91;;;17.75;71.32
46347;BME280;32057;47.830;19.046;2022-07-09T05:38:57;100691.53;;;17.86;71.41
46347;BME280;32057;47.830;19.046;2022-07-09T05:41:24;100693.28;;;17.88;70.80
46347;BME280;32057;47.830;19.046;2022-07-09T05:43:50;100689.75;;;17.77;70.97
46347;BME280;32057;47.830;19.046;2022-07-09T05:46:16;100682.75;;;17.91;70.27
46347;BME280;32057;47.830;19.046;2022-07-09T05:48:41;100680.91;;;18.06;69.76
46347;BME280;32057;47.830;19.046;2022-07-09T05:51:07;100691.38;;;18.18;70.17
46347;BME280;32057;47.830;19.046;2022-07-09T05:53:32;100687.03;;;18.13;70.15
46347;BME280;32057;47.830;19.046;2022-07-09T05:55:58;100692.19;;;18.34;69.71
46347;BME280;32057;47.830;19.046;2022-07-09T05:58:23;100689.41;;;18.54;68.76
46347;BME280;32057;47.830;19.046;2022-07-09T06:00:49;100690.28;;;18.56;68.55
46347;BME280;32057;47.830;19.046;2022-07-09T06:03:14;100684.06;;;18.68;68.25
46347;BME280;32057;47.830;19.046;2022-07-09T06:05:39;100684.88;;;18.76;67.83
46347;BME280;32057;47.830;19.046;2022-07-09T06:08:05;100688.38;;;18.77;67.79
46347;BME280;32057;47.830;19.046;2022-07-09T06:10:30;100685.66;;;18.90;68.29
46347;BME280;32057;47.830;19.046;2022-07-09T06:12:56;100695.34;;;18.92;67.57
46347;BME280;32057;47.830;19.046;2022-07-09T06:15:21;100684.56;;;19.13;67.19
46347;BME280;32057;47.830;19.046;2022-07-09T06:17:47;100675.59;;;19.33;64.94
46347;BME280;32057;47.830;19.046;2022-07-09T06:20:15;100678.84;;;19.59;64.59
46347;BME280;32057;47.830;19.046;2022-07-09T06:22:41;100673.47;;;19.72;63.81
46347;BME280;32057;47.830;19.046;2022-07-09T06:25:07;100663.75;;;19.74;63.75
46347;BME280;32057;47.830;19.046;2022-07-09T06:27:34;100661.06;;;19.77;63.44
46347;BME280;32057;47.830;19.046;2022-07-09T06:29:59;100662.69;;;19.88;62.52
46347;BME280;32057;47.830;19.046;2022-07-09T06:32:25;100659.06;;;19.97;60.83
46347;BME280;32057;47.830;19.046;2022-07-09T06:34:51;100658.63;;;20.28;61.14
46347;BME280;32057;47.830;19.046;2022-07-09T06:37:16;100650.47;;;20.43;59.66
46347;BME280;32057;47.830;19.046;2022-07-09T06:39:41;100643.31;;;20.50;58.74
46347;BME280;32057;47.830;19.046;2022-07-09T06:42:10;100647.47;;;20.68;58.94
46347;BME280;32057;47.830;19.046;2022-07-09T06:44:36;100646.28;;;20.87;56.70
46347;BME280;32057;47.830;19.046;2022-07-09T06:47:03;100641.75;;;20.94;56.72
46347;BME280;32057;47.830;19.046;2022-07-09T06:49:29;100652.31;;;20.96;55.04
46347;BME280;32057;47.830;19.046;2022-07-09T06:51:54;100651.56;;;20.87;54.87
46347;BME280;32057;47.830;19.046;2022-07-09T06:54:20;100642.44;;;21.05;53.85
46347;BME280;32057;47.830;19.046;2022-07-09T06:56:45;100639.53;;;21.19;52.67
46347;BME280;32057;47.830;19.046;2022-07-09T06:59:11;100638.56;;;21.25;52.42
46347;BME280;32057;47.830;19.046;2022-07-09T07:01:36;100646.44;;;21.26;52.64
46347;BME280;32057;47.830;19.046;2022-07-09T07:04:02;100636.44;;;21.44;52.97
46347;BME280;32057;47.830;19.046;2022-07-09T07:06:27;100635.28;;;21.59;51.99
46347;BME280;32057;47.830;19.046;2022-07-09T07:08:53;100628.13;;;21.62;53.07
46347;BME280;32057;47.830;19.046;2022-07-09T07:11:18;100631.25;;;21.83;52.36
46347;BME280;32057;47.830;19.046;2022-07-09T07:13:44;100630.63;;;21.70;51.40
46347;BME280;32057;47.830;19.046;2022-07-09T07:18:35;100629.94;;;22.02;52.80
46347;BME280;32057;47.830;19.046;2022-07-09T07:21:00;100632.00;;;21.88;51.74
46347;BME280;32057;47.830;19.046;2022-07-09T07:23:25;100630.91;;;21.98;52.45
46347;BME280;32057;47.830;19.046;2022-07-09T07:25:51;100624.72;;;21.99;51.41
46347;BME280;32057;47.830;19.046;2022-07-09T07:28:16;100632.00;;;22.30;51.39
46347;BME280;32057;47.830;19.046;2022-07-09T07:30:42;100624.16;;;21.85;51.63
46347;BME280;32057;47.830;19.046;2022-07-09T07:33:07;100632.72;;;21.96;51.86
46347;BME280;32057;47.830;19.046;2022-07-09T07:35:33;100625.81;;;22.30;51.68
46347;BME280;32057;47.830;19.046;2022-07-09T07:37:58;100633.25;;;22.53;50.86
46347;BME280;32057;47.830;19.046;2022-07-09T07:40:24;100625.81;;;22.67;50.96
46347;BME280;32057;47.830;19.046;2022-07-09T07:42:50;100617.44;;;22.82;51.33
46347;BME280;32057;47.830;19.046;2022-07-09T07:45:15;100626.03;;;22.58;49.57
46347;BME280;32057;47.830;19.046;2022-07-09T07:47:41;100617.53;;;22.43;49.73
46347;BME280;32057;47.830;19.046;2022-07-09T07:50:07;100620.66;;;22.61;49.65
46347;BME280;32057;47.830;19.046;2022-07-09T07:52:32;100618.72;;;22.67;50.65
46347;BME280;32057;47.830;19.046;2022-07-09T07:54:58;100608.38;;;22.91;50.14
46347;BME280;32057;47.830;19.046;2022-07-09T07:57:23;100608.59;;;22.83;50.09
46347;BME280;32057;47.830;19.046;2022-07-09T07:59:49;100607.09;;;22.37;49.55
46347;BME280;32057;47.830;19.046;2022-07-09T08:02:14;100602.00;;;22.28;49.80
46347;BME280;32057;47.830;19.046;2022-07-09T08:04:40;100606.56;;;22.59;50.23
46347;BME280;32057;47.830;19.046;2022-07-09T08:07:05;100606.81;;;22.48;48.54
46347;BME280;32057;47.830;19.046;2022-07-09T08:09:32;100601.09;;;22.29;48.77
46347;BME280;32057;47.830;19.046;2022-07-09T08:11:58;100602.53;;;22.42;48.36
46347;BME280;32057;47.830;19.046;2022-07-09T08:14:24;100598.59;;;22.59;46.11
46347;BME280;32057;47.830;19.046;2022-07-09T08:16:49;100588.22;;;22.84;47.58
46347;BME280;32057;47.830;19.046;2022-07-09T08:19:15;100596.41;;;23.11;46.25
46347;BME280;32057;47.830;19.046;2022-07-09T08:21:41;100597.66;;;22.96;47.43
46347;BME280;32057;47.830;19.046;2022-07-09T08:24:06;100590.66;;;22.93;47.13
46347;BME280;32057;47.830;19.046;2022-07-09T08:26:32;100591.13;;;23.09;47.29
46347;BME280;32057;47.830;19.046;2022-07-09T08:28:57;100591.97;;;23.11;46.32
46347;BME280;32057;47.830;19.046;2022-07-09T08:31:23;100591.41;;;23.31;47.16
46347;BME280;32057;47.830;19.046;2022-07-09T08:33:49;100593.63;;;23.46;45.54
46347;BME280;32057;47.830;19.046;2022-07-09T08:36:16;100589.28;;;23.13;45.32
46347;BME280;32057;47.830;19.046;2022-07-09T08:38:42;100594.56;;;22.78;46.79
46347;BME280;32057;47.830;19.046;2022-07-09T08:41:07;100593.00;;;22.35;47.32
46347;BME280;32057;47.830;19.046;2022-07-09T08:43:34;100597.25;;;22.03;48.03
46347;BME280;32057;47.830;19.046;2022-07-09T08:46:00;100584.53;;;22.18;47.79
46347;BME280;32057;47.830;19.046;2022-07-09T08:48:26;100597.44;;;22.35;47.35
46347;BME280;32057;47.830;19.046;2022-07-09T08:50:52;100589.56;;;22.30;46.78
46347;BME280;32057;47.830;19.046;2022-07-09T08:53:18;100585.00;;;22.37;47.02
46347;BME280;32057;47.830;19.046;2022-07-09T08:55:47;100583.69;;;22.89;45.35
46347;BME280;32057;47.830;19.046;2022-07-09T08:58:13;100575.75;;;23.20;45.23
46347;BME280;32057;47.830;19.046;2022-07-09T09:00:40;100576.84;;;23.44;44.61
46347;BME280;32057;47.830;19.046;2022-07-09T09:03:06;100579.22;;;23.55;44.87
46347;BME280;32057;47.830;19.046;2022-07-09T09:05:32;100587.72;;;23.04;45.26
46347;BME280;32057;47.830;19.046;2022-07-09T09:07:57;100579.09;;;22.61;45.48
46347;BME280;32057;47.830;19.046;2022-07-09T09:10:25;100582.72;;;22.92;45.31
46347;BME280;32057;47.830;19.046;2022-07-09T09:12:59;100578.44;;;22.86;45.27
46347;BME280;32057;47.830;19.046;2022-07-09T09:15:25;100578.72;;;22.75;45.60
46347;BME280;32057;47.830;19.046;2022-07-09T09:17:51;100579.75;;;23.04;45.09
46347;BME280;32057;47.830;19.046;2022-07-09T09:20:17;100572.59;;;23.39;44.38
46347;BME280;32057;47.830;19.046;2022-07-09T09:22:51;100574.13;;;23.79;43.93
46347;BME280;32057;47.830;19.046;2022-07-09T09:25:25;100568.56;;;23.87;42.72
46347;BME280;32057;47.830;19.046;2022-07-09T09:27:55;100573.63;;;23.64;42.89
46347;BME280;32057;47.830;19.046;2022-07-09T09:30:22;100570.34;;;23.25;43.64
46347;BME280;32057;47.830;19.046;2022-07-09T09:32:57;100572.84;;;23.30;42.88
46347;BME280;32057;47.830;19.046;2022-07-09T09:35:24;100567.78;;;23.52;42.89
46347;BME280;32057;47.830;19.046;2022-07-09T09:37:50;100561.59;;;23.82;41.99
46347;BME280;32057;47.830;19.046;2022-07-09T09:40:16;100561.47;;;23.87;41.33
46347;BME280;32057;47.830;19.046;2022-07-09T09:42:43;100555.31;;;23.55;41.68
46347;BME280;32057;47.830;19.046;2022-07-09T09:45:13;100562.06;;;23.65;41.36
46347;BME280;32057;47.830;19.046;2022-07-09T09:47:39;100561.19;;;23.66;40.62
46347;BME280;32057;47.830;19.046;2022-07-09T09:50:05;100554.03;;;23.69;40.08
46347;BME280;32057;47.830;19.046;2022-07-09T09:52:32;100547.13;;;23.93;40.96
46347;BME280;32057;47.830;19.046;2022-07-09T09:55:00;100555.19;;;24.44;40.53
46347;BME280;32057;47.830;19.046;2022-07-09T09:57:27;100552.06;;;24.03;36.70
46347;BME280;32057;47.830;19.046;2022-07-09T09:59:53;100548.34;;;23.51;38.55
46347;BME280;32057;47.830;19.046;2022-07-09T10:02:20;100541.47;;;24.02;38.40
46347;BME280;32057;47.830;19.046;2022-07-09T10:04:46;100536.69;;;24.40;38.40
46347;BME280;32057;47.830;19.046;2022-07-09T10:07:13;100527.53;;;24.75;37.60
46347;BME280;32057;47.830;19.046;2022-07-09T10:09:39;100512.31;;;25.04;37.61
46347;BME280;32057;47.830;19.046;2022-07-09T10:12:06;100522.72;;;25.10;37.11
46347;BME280;32057;47.830;19.046;2022-07-09T10:14:34;100527.97;;;24.63;37.40
46347;BME280;32057;47.830;19.046;2022-07-09T10:17:12;100528.97;;;24.32;38.55
46347;BME280;32057;47.830;19.046;2022-07-09T10:19:53;100515.78;;;24.82;38.62
46347;BME280;32057;47.830;19.046;2022-07-09T10:22:20;100517.56;;;25.05;37.09
46347;BME280;32057;47.830;19.046;2022-07-09T10:24:46;100513.72;;;25.14;37.92
46347;BME280;32057;47.830;19.046;2022-07-09T10:27:14;100507.84;;;25.30;36.90
46347;BME280;32057;47.830;19.046;2022-07-09T10:32:27;100500.63;;;24.84;37.21
46347;BME280;32057;47.830;19.046;2022-07-09T10:35:05;100510.91;;;24.42;37.12
46347;BME280;32057;47.830;19.046;2022-07-09T10:37:44;100509.88;;;24.21;37.56
46347;BME280;32057;47.830;19.046;2022-07-09T10:40:16;100499.53;;;24.65;37.75
46347;BME280;32057;47.830;19.046;2022-07-09T10:43:01;100501.13;;;25.43;34.87
46347;BME280;32057;47.830;19.046;2022-07-09T10:45:47;100494.81;;;25.68;34.96
46347;BME280;32057;47.830;19.046;2022-07-09T10:48:14;100493.09;;;24.96;34.83
46347;BME280;32057;47.830;19.046;2022-07-09T10:50:44;100492.31;;;24.69;34.95
46347;BME280;32057;47.830;19.046;2022-07-09T10:53:10;100486.72;;;24.76;35.29
46347;BME280;32057;47.830;19.046;2022-07-09T10:55:36;100488.13;;;24.87;35.19
46347;BME280;32057;47.830;19.046;2022-07-09T10:58:02;100486.25;;;24.63;34.57
46347;BME280;32057;47.830;19.046;2022-07-09T11:00:33;100483.50;;;25.15;34.13
46347;BME280;32057;47.830;19.046;2022-07-09T11:03:00;100476.53;;;25.36;33.11
46347;BME280;32057;47.830;19.046;2022-07-09T11:05:29;100478.66;;;25.72;33.59
46347;BME280;32057;47.830;19.046;2022-07-09T11:10:21;100472.97;;;26.03;34.11
46347;BME280;32057;47.830;19.046;2022-07-09T11:12:49;100470.03;;;25.88;33.31
46347;BME280;32057;47.830;19.046;2022-07-09T11:15:21;100473.19;;;25.06;34.58
46347;BME280;32057;47.830;19.046;2022-07-09T11:17:55;100466.16;;;25.29;34.69
46347;BME280;32057;47.830;19.046;2022-07-09T11:20:20;100461.22;;;25.63;35.44
46347;BME280;32057;47.830;19.046;2022-07-09T11:22:49;100458.34;;;25.92;33.90
46347;BME280;32057;47.830;19.046;2022-07-09T11:25:16;100455.19;;;26.45;33.96
46347;BME280;32057;47.830;19.046;2022-07-09T11:27:42;100453.97;;;25.45;33.91
46347;BME280;32057;47.830;19.046;2022-07-09T11:30:12;100464.38;;;25.04;34.09
46347;BME280;32057;47.830;19.046;2022-07-09T11:32:38;100468.09;;;24.76;34.32
46347;BME280;32057;47.830;19.046;2022-07-09T11:35:04;100457.25;;;24.56;33.49
46347;BME280;32057;47.830;19.046;2022-07-09T11:37:29;100448.38;;;24.57;33.69
46347;BME280;32057;47.830;19.046;2022-07-09T11:39:54;100435.44;;;25.18;33.76
46347;BME280;32057;47.830;19.046;2022-07-09T11:42:20;100429.28;;;25.84;33.74
46347;BME280;32057;47.830;19.046;2022-07-09T11:44:57;100445.34;;;25.15;34.55
46347;BME280;32057;47.830;19.046;2022-07-09T11:47:38;100430.66;;;24.81;35.38
46347;BME280;32057;47.830;19.046;2022-07-09T11:50:12;100427.09;;;24.57;34.62
46347;BME280;32057;47.830;19.046;2022-07-09T11:52:49;100427.38;;;25.20;35.03
46347;BME280;32057;47.830;19.046;2022-07-09T11:55:17;100411.94;;;25.52;34.52
46347;BME280;32057;47.830;19.046;2022-07-09T11:58:05;100417.91;;;26.02;33.83
46347;BME280;32057;47.830;19.046;2022-07-09T12:00:34;100414.19;;;25.62;34.62
46347;BME280;32057;47.830;19.046;2022-07-09T12:03:00;100420.56;;;25.13;34.57
46347;BME280;32057;47.830;19.046;2022-07-09T12:05:34;100411.34;;;25.23;34.45
46347;BME280;32057;47.830;19.046;2022-07-09T12:08:06;100397.00;;;25.70;33.69
46347;BME280;32057;47.830;19.046;2022-07-09T12:10:34;100395.72;;;26.22;33.08
46347;BME280;32057;47.830;19.046;2022-07-09T12:13:01;100396.97;;;26.34;32.74
46347;BME280;32057;47.830;19.046;2022-07-09T12:15:28;100398.03;;;26.51;31.72
46347;BME280;32057;47.830;19.046;2022-07-09T12:17:55;100398.03;;;25.88;32.33
46347;BME280;32057;47.830;19.046;2022-07-09T12:20:22;100392.50;;;25.50;32.73
46347;BME280;32057;47.830;19.046;2022-07-09T12:22:48;100382.56;;;25.97;32.33
46347;BME280;32057;47.830;19.046;2022-07-09T12:25:14;100372.97;;;26.14;33.28
46347;BME280;32057;47.830;19.046;2022-07-09T12:27:39;100372.25;;;25.88;33.61
46347;BME280;32057;47.830;19.046;2022-07-09T12:30:05;100383.66;;;25.27;33.96
46347;BME280;32057;47.830;19.046;2022-07-09T12:32:31;100386.25;;;25.29;34.15
46347;BME280;32057;47.830;19.046;2022-07-09T12:34:56;100376.16;;;26.22;33.45
46347;BME280;32057;47.830;19.046;2022-07-09T12:37:22;100374.16;;;25.64;32.65
46347;BME280;32057;47.830;19.046;2022-07-09T12:39:47;100370.53;;;25.21;32.95
46347;BME280;32057;47.830;19.046;2022-07-09T12:42:14;100367.44;;;25.76;33.50
46347;BME280;32057;47.830;19.046;2022-07-09T12:44:40;100356.75;;;25.98;33.53